createdAt,value
2022-11-28T00:00:33.632Z,4.93
2022-11-28T00:03:01.275Z,8.77
2022-11-28T00:05:28.103Z,6.00
2022-11-28T00:07:55.642Z,5.30
2022-11-28T00:10:22.555Z,5.65
2022-11-28T00:12:49.176Z,7.75
2022-11-28T00:15:15.829Z,6.03
2022-11-28T00:17:42.413Z,8.60
2022-11-28T00:20:09.337Z,6.10
2022-11-28T00:22:36.082Z,7.10
2022-11-28T00:25:02.651Z,6.32
2022-11-28T00:27:29.269Z,5.47
2022-11-28T00:29:56.945Z,6.38
2022-11-28T00:32:23.753Z,5.68
2022-11-28T00:34:50.431Z,9.48
2022-11-28T00:37:17.013Z,12.40
2022-11-28T00:39:43.673Z,7.68
2022-11-28T00:42:10.226Z,6.15
2022-11-28T00:44:36.805Z,5.65
2022-11-28T00:47:03.417Z,8.13
2022-11-28T00:49:30.024Z,8.40
2022-11-28T00:51:56.613Z,8.27
2022-11-28T00:54:23.188Z,8.13
2022-11-28T00:56:49.796Z,5.50
2022-11-28T00:59:16.466Z,7.22
2022-11-28T01:01:44.068Z,11.00
2022-11-28T01:04:13.357Z,6.55
2022-11-28T01:06:48.203Z,6.72
2022-11-28T01:09:19.258Z,12.07
2022-11-28T01:11:46.874Z,6.28
2022-11-28T01:14:13.610Z,7.22
2022-11-28T01:16:40.251Z,7.43
2022-11-28T01:19:07.346Z,9.00
2022-11-28T01:21:34.825Z,6.00
2022-11-28T01:24:01.430Z,7.20
2022-11-28T01:26:29.598Z,7.60
2022-11-28T01:28:57.261Z,8.85
2022-11-28T01:31:26.791Z,9.30
2022-11-28T01:33:54.207Z,5.95
2022-11-28T01:36:21.711Z,7.72
2022-11-28T01:38:48.853Z,5.75
2022-11-28T01:41:17.540Z,6.13
2022-11-28T01:43:59.388Z,12.00
2022-11-28T01:46:26.029Z,8.70
2022-11-28T01:48:53.754Z,5.63
2022-11-28T01:51:20.675Z,6.07
2022-11-28T01:53:47.673Z,7.07
2022-11-28T01:56:15.943Z,6.70
2022-11-28T01:58:44.836Z,8.05
2022-11-28T02:01:11.731Z,7.88
2022-11-28T02:03:44.195Z,7.15
2022-11-28T02:06:13.731Z,7.15
2022-11-28T02:08:40.849Z,9.57
2022-11-28T02:11:25.964Z,7.75
2022-11-28T02:13:58.011Z,6.65
2022-11-28T02:16:46.179Z,8.93
2022-11-28T02:19:45.828Z,9.20
2022-11-28T02:22:47.576Z,9.02
2022-11-28T02:25:31.920Z,7.47
2022-11-28T02:28:35.600Z,9.10
2022-11-28T02:31:08.212Z,6.20
2022-11-28T02:33:39.393Z,9.40
2022-11-28T02:36:05.919Z,8.00
2022-11-28T02:39:12.440Z,9.30
2022-11-28T02:41:50.502Z,7.72
2022-11-28T02:44:19.197Z,13.93
2022-11-28T02:47:14.420Z,8.05
2022-11-28T02:49:48.864Z,7.30
2022-11-28T02:52:21.244Z,11.13
2022-11-28T02:54:49.608Z,5.95
2022-11-28T02:57:16.293Z,7.35
2022-11-28T02:59:42.854Z,7.95
2022-11-28T03:02:15.443Z,14.00
2022-11-28T03:04:54.188Z,10.48
2022-11-28T03:07:45.190Z,9.10
2022-11-28T03:10:30.644Z,11.40
2022-11-28T03:13:29.609Z,11.25
2022-11-28T03:16:02.464Z,9.70
2022-11-28T03:18:40.581Z,6.97
2022-11-28T03:21:15.666Z,9.57
2022-11-28T03:24:34.908Z,11.23
2022-11-28T03:27:16.583Z,8.75
2022-11-28T03:29:55.779Z,6.85
2022-11-28T03:32:32.212Z,7.90
2022-11-28T03:35:04.303Z,8.90
2022-11-28T03:37:34.168Z,11.05
2022-11-28T03:40:05.724Z,16.83
2022-11-28T03:42:37.027Z,11.98
2022-11-28T03:45:11.337Z,13.35
2022-11-28T03:47:44.926Z,13.55
2022-11-28T03:50:21.922Z,8.77
2022-11-28T03:52:59.006Z,9.02
2022-11-28T03:55:31.114Z,8.55
2022-11-28T03:58:02.934Z,10.68
2022-11-28T04:00:30.096Z,9.15
2022-11-28T04:03:14.005Z,8.18
2022-11-28T04:05:47.758Z,8.48
2022-11-28T04:08:19.870Z,10.20
2022-11-28T04:10:52.502Z,9.45
2022-11-28T04:13:24.229Z,8.82
2022-11-28T04:16:09.581Z,9.70
2022-11-28T04:18:42.180Z,9.30
2022-11-28T04:21:20.361Z,10.30
2022-11-28T04:23:48.153Z,10.88
2022-11-28T04:26:18.758Z,7.65
2022-11-28T04:28:47.376Z,11.05
2022-11-28T04:31:16.395Z,7.55
2022-11-28T04:33:44.983Z,9.38
2022-11-28T04:36:11.990Z,8.25
2022-11-28T04:38:40.914Z,9.90
2022-11-28T04:41:18.764Z,16.58
2022-11-28T04:43:53.753Z,31.70
2022-11-28T04:46:27.003Z,30.73
2022-11-28T04:48:54.534Z,21.42
2022-11-28T04:51:25.624Z,17.00
2022-11-28T04:54:15.105Z,12.35
2022-11-28T04:56:50.614Z,12.18
2022-11-28T04:59:17.810Z,8.90
2022-11-28T05:01:46.127Z,8.57
2022-11-28T05:04:14.113Z,11.63
2022-11-28T05:06:40.896Z,9.30
2022-11-28T05:09:07.603Z,13.73
2022-11-28T05:11:34.503Z,7.65
2022-11-28T05:14:01.216Z,12.48
2022-11-28T05:16:27.976Z,10.35
2022-11-28T05:18:54.701Z,11.10
2022-11-28T05:21:21.327Z,10.45
2022-11-28T05:23:48.239Z,10.43
2022-11-28T05:26:17.615Z,8.88
2022-11-28T05:28:49.727Z,9.70
2022-11-28T05:31:17.984Z,16.77
2022-11-28T05:33:44.693Z,9.95
2022-11-28T05:36:13.665Z,11.50
2022-11-28T05:38:41.079Z,13.55
2022-11-28T05:41:07.920Z,11.05
2022-11-28T05:43:34.823Z,14.43
2022-11-28T05:46:01.465Z,9.27
2022-11-28T05:48:28.144Z,10.00
2022-11-28T05:50:54.825Z,9.20
2022-11-28T05:53:21.542Z,8.43
2022-11-28T05:55:48.451Z,10.27
2022-11-28T05:58:15.186Z,10.80
2022-11-28T06:00:41.935Z,10.80
2022-11-28T06:03:08.566Z,10.40
2022-11-28T06:05:42.614Z,12.02
2022-11-28T06:08:11.932Z,9.82
2022-11-28T06:10:38.708Z,8.80
2022-11-28T06:13:05.484Z,9.85
2022-11-28T06:15:37.276Z,8.55
2022-11-28T06:18:04.723Z,10.13
2022-11-28T06:20:31.315Z,8.80
2022-11-28T06:22:58.330Z,10.05
2022-11-28T06:25:24.964Z,10.85
2022-11-28T06:27:51.564Z,9.00
2022-11-28T06:30:18.267Z,9.35
2022-11-28T06:32:44.919Z,10.18
2022-11-28T06:35:11.678Z,10.93
2022-11-28T06:37:38.375Z,8.10
2022-11-28T06:40:05.944Z,12.85
2022-11-28T06:42:34.421Z,11.82
2022-11-28T06:45:02.092Z,13.80
2022-11-28T06:47:28.782Z,11.73
2022-11-28T06:49:55.757Z,8.68
2022-11-28T06:52:22.373Z,10.45
2022-11-28T06:54:49.537Z,10.38
2022-11-28T06:57:16.303Z,7.97
2022-11-28T06:59:43.310Z,9.63
2022-11-28T07:02:11.342Z,10.82
2022-11-28T07:04:38.168Z,8.50
2022-11-28T07:07:04.807Z,7.35
2022-11-28T07:09:31.495Z,8.75
2022-11-28T07:11:58.204Z,14.82
2022-11-28T07:14:24.902Z,8.00
2022-11-28T07:16:51.660Z,12.20
2022-11-28T07:19:22.743Z,10.73
2022-11-28T07:21:50.277Z,11.07
2022-11-28T07:24:18.545Z,9.68
2022-11-28T07:26:46.476Z,7.97
2022-11-28T07:29:17.862Z,9.35
2022-11-28T07:31:45.127Z,8.73
2022-11-28T07:34:11.833Z,9.15
2022-11-28T07:36:38.699Z,8.65
2022-11-28T07:39:08.757Z,8.57
2022-11-28T07:41:35.502Z,11.40
2022-11-28T07:44:03.476Z,9.20
2022-11-28T07:46:31.432Z,9.30
2022-11-28T07:48:58.160Z,11.73
2022-11-28T07:51:27.045Z,7.85
2022-11-28T07:53:54.377Z,9.55
2022-11-28T07:56:24.875Z,10.48
2022-11-28T07:58:51.608Z,10.00
2022-11-28T08:01:24.951Z,10.38
2022-11-28T08:03:53.044Z,10.25
2022-11-28T08:06:22.475Z,8.23
2022-11-28T08:08:49.956Z,8.63
2022-11-28T08:11:17.918Z,8.63
2022-11-28T08:13:45.049Z,9.50
2022-11-28T08:16:17.245Z,10.40
2022-11-28T08:18:44.168Z,11.38
2022-11-28T08:21:16.388Z,8.43
2022-11-28T08:23:45.280Z,11.38
2022-11-28T08:26:15.537Z,8.63
2022-11-28T08:28:43.138Z,11.55
2022-11-28T08:31:12.535Z,10.30
2022-11-28T08:33:39.430Z,9.00
2022-11-28T08:36:07.195Z,12.00
2022-11-28T08:38:33.869Z,10.32
2022-11-28T08:41:09.435Z,11.63
2022-11-28T08:43:37.365Z,12.93
2022-11-28T08:46:05.517Z,9.23
2022-11-28T08:48:33.047Z,10.20
2022-11-28T08:50:59.661Z,10.98
2022-11-28T08:53:27.656Z,11.00
2022-11-28T08:55:54.620Z,8.15
2022-11-28T08:58:21.302Z,8.98
2022-11-28T09:00:48.010Z,11.75
2022-11-28T09:03:16.762Z,10.45
2022-11-28T09:05:46.045Z,9.27
2022-11-28T09:08:13.682Z,9.90
2022-11-28T09:10:41.411Z,8.70
2022-11-28T09:13:09.161Z,8.57
2022-11-28T09:15:39.837Z,10.38
2022-11-28T09:18:06.562Z,10.82
2022-11-28T09:20:33.980Z,9.90
2022-11-28T09:23:01.855Z,13.25
2022-11-28T09:25:28.535Z,8.50
2022-11-28T09:27:55.190Z,13.98
2022-11-28T09:30:22.854Z,8.60
2022-11-28T09:32:52.592Z,9.43
2022-11-28T09:35:19.240Z,12.93
2022-11-28T09:37:45.862Z,10.75
2022-11-28T09:40:19.250Z,10.50
2022-11-28T09:42:47.043Z,11.18
2022-11-28T09:45:16.277Z,11.80
2022-11-28T09:47:46.424Z,12.35
2022-11-28T09:50:20.965Z,8.68
2022-11-28T09:53:11.985Z,9.13
2022-11-28T09:56:00.749Z,9.63
2022-11-28T09:58:41.893Z,8.23
2022-11-28T10:01:53.029Z,10.57
2022-11-28T10:04:25.006Z,11.45
2022-11-28T10:07:12.930Z,9.90
2022-11-28T10:09:48.462Z,10.73
2022-11-28T10:12:33.203Z,10.23
2022-11-28T10:15:26.255Z,11.75
2022-11-28T10:18:04.508Z,14.70
2022-11-28T10:20:39.359Z,9.52
2022-11-28T10:23:31.936Z,10.18
2022-11-28T10:26:11.973Z,10.80
2022-11-28T10:28:41.858Z,8.43
2022-11-28T10:31:30.886Z,8.02
2022-11-28T10:33:57.450Z,10.75
2022-11-28T10:36:50.610Z,9.02
2022-11-28T10:39:17.285Z,8.35
2022-11-28T10:42:12.362Z,14.48
2022-11-28T10:45:02.155Z,9.20
2022-11-28T10:47:31.787Z,10.13
2022-11-28T10:50:32.156Z,10.80
2022-11-28T10:53:30.953Z,8.27
2022-11-28T10:56:08.438Z,9.23
2022-11-28T10:58:55.076Z,10.48
2022-11-28T11:01:22.119Z,9.40
2022-11-28T11:03:49.130Z,11.07
2022-11-28T11:06:15.824Z,9.70
2022-11-28T11:08:42.602Z,7.22
2022-11-28T11:11:28.738Z,8.63
2022-11-28T11:14:10.006Z,10.15
2022-11-28T11:16:49.949Z,10.32
2022-11-28T11:19:34.517Z,8.50
2022-11-28T11:22:14.463Z,10.80
2022-11-28T11:24:41.186Z,9.88
2022-11-28T11:27:18.521Z,8.98
2022-11-28T11:29:49.233Z,12.93
2022-11-28T11:32:21.933Z,8.02
2022-11-28T11:34:48.924Z,10.30
2022-11-28T11:37:38.198Z,10.43
2022-11-28T11:40:18.110Z,10.10
2022-11-28T11:42:53.149Z,12.55
2022-11-28T11:45:32.252Z,8.35
2022-11-28T11:47:59.077Z,11.95
2022-11-28T11:50:31.082Z,8.98
2022-11-28T11:53:06.956Z,11.45
2022-11-28T11:55:40.757Z,11.60
2022-11-28T11:58:11.526Z,13.68
2022-11-28T12:00:39.672Z,15.90
2022-11-28T12:03:15.430Z,8.95
2022-11-28T12:06:12.726Z,9.13
2022-11-28T12:08:41.660Z,14.00
2022-11-28T12:11:17.432Z,13.27
2022-11-28T12:13:45.560Z,11.15
2022-11-28T12:16:30.308Z,11.48
2022-11-28T12:19:21.608Z,10.50
2022-11-28T12:22:04.528Z,13.63
2022-11-28T12:24:39.343Z,11.18
2022-11-28T12:27:26.330Z,14.43
2022-11-28T12:30:14.407Z,14.95
2022-11-28T12:33:18.903Z,10.52
2022-11-28T12:36:06.402Z,14.23
2022-11-28T12:39:05.461Z,13.82
2022-11-28T12:42:02.083Z,15.13
2022-11-28T12:44:56.621Z,12.23
2022-11-28T12:47:45.012Z,9.48
2022-11-28T12:50:32.130Z,13.43
2022-11-28T12:53:20.918Z,12.23
2022-11-28T12:56:00.631Z,11.55
2022-11-28T12:58:41.255Z,13.73
2022-11-28T13:01:35.918Z,11.27
2022-11-28T13:04:13.700Z,10.98
2022-11-28T13:06:49.453Z,8.57
2022-11-28T13:09:35.211Z,10.95
2022-11-28T13:12:07.644Z,14.98
2022-11-28T13:14:34.242Z,15.30
2022-11-28T13:17:29.095Z,11.40
2022-11-28T13:20:04.233Z,11.85
2022-11-28T13:22:53.117Z,13.85
2022-11-28T13:25:25.274Z,13.18
2022-11-28T13:28:03.613Z,15.27
2022-11-28T13:30:34.737Z,12.15
2022-11-28T13:33:11.774Z,19.20
2022-11-28T13:35:40.940Z,14.52
2022-11-28T13:41:28.518Z,14.20
2022-11-28T13:44:04.831Z,15.65
2022-11-28T13:46:33.559Z,13.60
2022-11-28T13:49:14.446Z,11.40
2022-11-28T13:51:42.162Z,10.10
2022-11-28T13:54:32.118Z,14.05
2022-11-28T13:57:05.505Z,17.73
2022-11-28T13:59:33.170Z,12.45
2022-11-28T14:02:02.126Z,9.68
2022-11-28T14:04:33.966Z,10.77
2022-11-28T14:07:05.685Z,10.05
2022-11-28T14:10:03.936Z,11.75
2022-11-28T14:12:56.792Z,9.57
2022-11-28T14:15:35.182Z,10.20
2022-11-28T14:18:39.332Z,11.32
2022-11-28T14:21:05.087Z,11.45
2022-11-28T14:23:39.775Z,9.90
2022-11-28T14:26:27.538Z,10.50
2022-11-28T14:28:55.484Z,9.90
2022-11-28T14:31:34.668Z,11.10
2022-11-28T14:34:06.842Z,9.90
2022-11-28T14:36:41.829Z,8.35
2022-11-28T14:39:33.053Z,11.02
2022-11-28T14:42:03.699Z,13.07
2022-11-28T14:44:50.708Z,10.20
2022-11-28T14:47:24.052Z,13.88
2022-11-28T14:50:06.027Z,10.23
2022-11-28T14:52:40.755Z,10.35
2022-11-28T14:55:12.327Z,12.13
2022-11-28T14:58:00.207Z,9.15
2022-11-28T15:00:28.633Z,10.50
2022-11-28T15:03:04.956Z,10.35
2022-11-28T15:05:53.226Z,9.93
2022-11-28T15:08:51.720Z,7.18
2022-11-28T15:11:42.854Z,10.88
2022-11-28T15:14:21.913Z,9.38
2022-11-28T15:17:00.860Z,9.88
2022-11-28T15:19:40.208Z,8.93
2022-11-28T15:22:30.081Z,11.30
2022-11-28T15:24:56.994Z,10.38
2022-11-28T15:27:26.234Z,8.88
2022-11-28T15:30:01.005Z,9.32
2022-11-28T15:32:30.516Z,9.02
2022-11-28T15:35:12.721Z,11.35
2022-11-28T15:37:55.617Z,10.18
2022-11-28T15:40:34.654Z,13.82
2022-11-28T15:43:06.640Z,13.40
2022-11-28T15:45:36.989Z,12.18
2022-11-28T15:48:05.890Z,13.25
2022-11-28T15:50:33.983Z,13.45
2022-11-28T15:53:20.562Z,15.43
2022-11-28T15:55:47.752Z,11.80
2022-11-28T15:58:34.020Z,13.30
2022-11-28T16:01:08.009Z,15.23
2022-11-28T16:03:43.828Z,12.25
2022-11-28T16:06:10.927Z,13.98
2022-11-28T16:08:47.631Z,12.23
2022-11-28T16:11:17.879Z,12.35
2022-11-28T16:13:44.680Z,12.55
2022-11-28T16:16:13.311Z,15.10
2022-11-28T16:18:44.487Z,12.73
2022-11-28T16:21:20.788Z,12.98
2022-11-28T16:23:47.594Z,11.60
2022-11-28T16:26:31.279Z,18.77
2022-11-28T16:29:09.478Z,14.98
2022-11-28T16:31:36.208Z,14.85
2022-11-28T16:34:03.453Z,17.33
2022-11-28T16:36:31.029Z,17.05
2022-11-28T16:39:16.479Z,21.52
2022-11-28T16:41:52.594Z,18.60
2022-11-28T16:44:22.374Z,19.85
2022-11-28T16:46:56.772Z,19.85
2022-11-28T16:49:37.309Z,19.67
2022-11-28T16:52:28.072Z,21.75
2022-11-28T16:54:55.839Z,23.45
2022-11-28T16:57:22.661Z,15.60
2022-11-28T16:59:53.563Z,17.42
2022-11-28T17:02:25.332Z,18.17
2022-11-28T17:04:53.448Z,23.38
2022-11-28T17:07:24.575Z,17.42
2022-11-28T17:09:51.464Z,20.60
2022-11-28T17:12:29.958Z,21.13
2022-11-28T17:14:58.307Z,22.17
2022-11-28T17:17:25.183Z,18.88
2022-11-28T17:19:52.051Z,15.48
2022-11-28T17:22:21.393Z,15.68
2022-11-28T17:24:49.108Z,17.70
2022-11-28T17:27:16.088Z,16.25
2022-11-28T17:29:43.002Z,18.13
2022-11-28T17:32:14.649Z,15.63
2022-11-28T17:34:46.226Z,18.70
2022-11-28T17:37:13.235Z,15.65
2022-11-28T17:39:40.066Z,19.90
2022-11-28T17:42:07.355Z,24.92
2022-11-28T17:44:36.343Z,15.45
2022-11-28T17:47:04.335Z,14.10
2022-11-28T17:49:31.572Z,16.23
2022-11-28T17:51:59.428Z,17.13
2022-11-28T17:54:27.285Z,18.80
2022-11-28T17:56:54.807Z,16.55
2022-11-28T17:59:27.114Z,18.90
2022-11-28T18:01:54.357Z,17.65
2022-11-28T18:04:24.210Z,18.98
2022-11-28T18:06:51.030Z,19.95
2022-11-28T18:09:17.796Z,19.55
2022-11-28T18:11:46.372Z,19.75
2022-11-28T18:14:13.845Z,19.80
2022-11-28T18:16:45.265Z,21.95
2022-11-28T18:19:13.569Z,18.40
2022-11-28T18:21:40.567Z,19.17
2022-11-28T18:24:07.854Z,23.23
2022-11-28T18:26:36.721Z,17.50
2022-11-28T18:29:06.960Z,21.42
2022-11-28T18:31:34.455Z,24.40
2022-11-28T18:34:03.484Z,21.35
2022-11-28T18:36:34.576Z,21.00
2022-11-28T18:39:04.549Z,25.17
2022-11-28T18:41:31.662Z,35.10
2022-11-28T18:44:02.663Z,43.35
2022-11-28T18:46:30.884Z,34.15
2022-11-28T18:48:58.802Z,38.25
2022-11-28T18:51:30.973Z,25.80
2022-11-28T18:53:58.379Z,32.00
2022-11-28T18:56:26.772Z,22.75
2022-11-28T18:58:54.796Z,20.08
2022-11-28T19:01:28.546Z,21.00
2022-11-28T19:04:09.272Z,22.75
2022-11-28T19:06:38.155Z,20.60
2022-11-28T19:09:07.358Z,25.08
2022-11-28T19:11:39.715Z,20.80
2022-11-28T19:14:10.017Z,17.48
2022-11-28T19:16:38.097Z,14.90
2022-11-28T19:19:06.592Z,17.45
2022-11-28T19:21:38.416Z,15.82
2022-11-28T19:24:12.557Z,17.48
2022-11-28T19:26:39.513Z,14.73
2022-11-28T19:29:06.670Z,16.63
2022-11-28T19:31:34.709Z,17.70
2022-11-28T19:34:05.905Z,13.70
2022-11-28T19:36:35.921Z,15.25
2022-11-28T19:39:05.090Z,14.82
2022-11-28T19:41:32.852Z,20.98
2022-11-28T19:44:02.062Z,18.10
2022-11-28T19:46:35.745Z,17.10
2022-11-28T19:49:13.238Z,15.32
2022-11-28T19:51:40.388Z,19.15
2022-11-28T19:54:07.434Z,17.05
2022-11-28T19:56:34.321Z,21.45
2022-11-28T19:59:01.953Z,24.08
2022-11-28T20:01:29.759Z,19.85
2022-11-28T20:03:59.714Z,17.27
2022-11-28T20:06:32.567Z,24.30
2022-11-28T20:09:14.428Z,25.67
2022-11-28T20:11:46.769Z,20.05
2022-11-28T20:14:28.598Z,23.42
2022-11-28T20:16:56.076Z,22.40
2022-11-28T20:19:34.848Z,21.48
2022-11-28T20:22:02.460Z,18.30
2022-11-28T20:24:31.037Z,20.58
2022-11-28T20:27:12.815Z,23.52
2022-11-28T20:29:39.997Z,19.27
2022-11-28T20:32:08.860Z,18.95
2022-11-28T20:37:19.479Z,22.90
2022-11-28T20:39:47.687Z,19.10
2022-11-28T20:42:14.445Z,22.90
2022-11-28T20:44:41.098Z,20.75
2022-11-28T20:47:11.019Z,24.65
2022-11-28T20:49:38.358Z,21.23
2022-11-28T20:52:05.577Z,20.73
2022-11-28T20:54:33.818Z,21.13
2022-11-28T20:59:47.257Z,29.30
2022-11-28T21:02:14.514Z,29.25
2022-11-28T21:04:42.636Z,29.55
2022-11-28T21:07:09.353Z,29.30
2022-11-28T21:09:36.057Z,28.58
2022-11-28T21:12:03.309Z,26.10
2022-11-28T21:14:29.981Z,31.85
2022-11-28T21:16:58.837Z,25.10
2022-11-28T21:19:25.882Z,28.40
2022-11-28T21:21:52.932Z,31.27
2022-11-28T21:24:23.172Z,31.20
2022-11-28T21:26:53.974Z,23.20
2022-11-28T21:29:22.225Z,27.23
2022-11-28T21:31:49.203Z,23.83
2022-11-28T21:34:16.847Z,27.33
2022-11-28T21:36:43.860Z,28.77
2022-11-28T21:39:16.793Z,27.42
2022-11-28T21:41:44.055Z,28.15
2022-11-28T21:44:10.904Z,29.90
2022-11-28T21:46:37.875Z,24.23
2022-11-28T21:49:05.651Z,28.63
2022-11-28T21:51:37.230Z,26.73
2022-11-28T21:54:04.321Z,28.90
2022-11-28T21:56:34.995Z,31.13
2022-11-28T21:59:02.307Z,33.45
2022-11-28T22:01:34.637Z,30.40
2022-11-28T22:04:03.226Z,29.00
2022-11-28T22:06:32.696Z,29.58
2022-11-28T22:08:59.936Z,29.17
2022-11-28T22:11:29.088Z,33.53
2022-11-28T22:13:55.831Z,40.17
2022-11-28T22:16:26.089Z,38.88
2022-11-28T22:18:55.709Z,36.05
2022-11-28T22:21:50.491Z,36.83
2022-11-28T22:24:10.334Z,41.10
2022-11-28T22:26:37.690Z,40.15
2022-11-28T22:29:05.980Z,39.42
2022-11-28T22:31:33.152Z,30.98
2022-11-28T22:34:00.265Z,33.15
2022-11-28T22:36:27.341Z,38.35
2022-11-28T22:38:55.645Z,30.20
2022-11-28T22:41:29.241Z,32.05
2022-11-28T22:44:00.675Z,33.78
2022-11-28T22:46:28.546Z,35.30
2022-11-28T22:48:55.630Z,32.03
2022-11-28T22:51:24.707Z,36.38
2022-11-28T22:53:55.892Z,37.42
2022-11-28T22:56:25.343Z,33.22
2022-11-28T22:58:52.176Z,33.85
2022-11-28T23:01:22.593Z,36.40
2022-11-28T23:03:50.022Z,28.80
2022-11-28T23:06:20.429Z,31.00
2022-11-28T23:08:53.866Z,31.67
2022-11-28T23:11:22.661Z,32.97
2022-11-28T23:13:50.228Z,28.08
2022-11-28T23:16:22.600Z,30.20
2022-11-28T23:18:51.190Z,29.95
2022-11-28T23:21:19.054Z,33.10
2022-11-28T23:23:46.162Z,37.75
2022-11-28T23:26:22.203Z,43.95
2022-11-28T23:28:50.174Z,32.97
2022-11-28T23:31:19.383Z,40.47
2022-11-28T23:33:46.600Z,33.80
2022-11-28T23:36:17.280Z,36.13
2022-11-28T23:38:45.489Z,32.28
2022-11-28T23:41:12.807Z,38.85
2022-11-28T23:43:39.894Z,34.58
2022-11-28T23:46:07.481Z,37.33
2022-11-28T23:48:34.287Z,36.78
2022-11-28T23:51:01.035Z,35.75
2022-11-28T23:53:27.723Z,32.88
2022-11-28T23:55:54.363Z,29.77
2022-11-28T23:58:21.186Z,27.40
